sensor_id;sensor_type;location;lat;lon;timestamp;temperature;humidity
27747;DHT22;15138;51.012;4.692;2023-10-08T00:01:10;17.30;99.90
27747;DHT22;15138;51.012;4.692;2023-10-08T00:03:41;17.30;99.90
27747;DHT22;15138;51.012;4.692;2023-10-08T00:06:15;17.40;99.90
27747;DHT22;15138;51.012;4.692;2023-10-08T00:08:48;17.30;99.90
27747;DHT22;15138;51.012;4.692;2023-10-08T00:11:16;17.20;99.90
27747;DHT22;15138;51.012;4.692;2023-10-08T00:13:45;17.20;99.90
27747;DHT22;15138;51.012;4.692;2023-10-08T00:16:16;17.20;99.90
27747;DHT22;15138;51.012;4.692;2023-10-08T00:18:45;17.20;99.90
27747;DHT22;15138;51.012;4.692;2023-10-08T00:21:19;17.10;99.90
27747;DHT22;15138;51.012;4.692;2023-10-08T00:23:55;17.10;99.90
27747;DHT22;15138;51.012;4.692;2023-10-08T00:26:27;17.10;99.90
27747;DHT22;15138;51.012;4.692;2023-10-08T00:28:58;17.10;99.90
27747;DHT22;15138;51.012;4.692;2023-10-08T00:31:27;17.10;99.90
27747;DHT22;15138;51.012;4.692;2023-10-08T00:33:59;17.10;99.90
27747;DHT22;15138;51.012;4.692;2023-10-08T00:36:31;17.10;99.90
27747;DHT22;15138;51.012;4.692;2023-10-08T00:39:03;17.10;99.90
27747;DHT22;15138;51.012;4.692;2023-10-08T00:41:35;17.00;99.90
27747;DHT22;15138;51.012;4.692;2023-10-08T00:44:07;17.00;99.90
27747;DHT22;15138;51.012;4.692;2023-10-08T00:46:37;17.00;99.90
27747;DHT22;15138;51.012;4.692;2023-10-08T00:49:09;16.90;99.90
27747;DHT22;15138;51.012;4.692;2023-10-08T00:51:52;16.90;99.90
27747;DHT22;15138;51.012;4.692;2023-10-08T00:54:46;16.80;99.90
27747;DHT22;15138;51.012;4.692;2023-10-08T00:57:26;16.80;99.90
27747;DHT22;15138;51.012;4.692;2023-10-08T00:59:57;16.80;99.90
27747;DHT22;15138;51.012;4.692;2023-10-08T01:02:28;16.70;99.90
27747;DHT22;15138;51.012;4.692;2023-10-08T01:05:10;16.70;99.90
27747;DHT22;15138;51.012;4.692;2023-10-08T01:07:40;16.70;99.90
27747;DHT22;15138;51.012;4.692;2023-10-08T01:10:13;16.70;99.90
27747;DHT22;15138;51.012;4.692;2023-10-08T01:12:46;16.70;99.90
27747;DHT22;15138;51.012;4.692;2023-10-08T01:15:30;16.60;99.90
27747;DHT22;15138;51.012;4.692;2023-10-08T01:18:03;16.60;99.90
27747;DHT22;15138;51.012;4.692;2023-10-08T01:20:34;16.50;99.90
27747;DHT22;15138;51.012;4.692;2023-10-08T01:23:07;16.50;99.90
27747;DHT22;15138;51.012;4.692;2023-10-08T01:25:40;16.50;99.90
27747;DHT22;15138;51.012;4.692;2023-10-08T01:28:10;16.40;99.90
27747;DHT22;15138;51.012;4.692;2023-10-08T01:30:42;16.40;99.90
27747;DHT22;15138;51.012;4.692;2023-10-08T01:33:14;16.40;99.90
27747;DHT22;15138;51.012;4.692;2023-10-08T01:35:44;16.40;99.90
27747;DHT22;15138;51.012;4.692;2023-10-08T01:38:14;16.20;99.90
27747;DHT22;15138;51.012;4.692;2023-10-08T01:40:49;16.20;99.90
27747;DHT22;15138;51.012;4.692;2023-10-08T01:43:19;16.10;99.90
27747;DHT22;15138;51.012;4.692;2023-10-08T01:45:48;16.10;99.90
27747;DHT22;15138;51.012;4.692;2023-10-08T01:48:18;16.10;99.90
27747;DHT22;15138;51.012;4.692;2023-10-08T01:50:54;16.10;99.90
27747;DHT22;15138;51.012;4.692;2023-10-08T01:53:24;16.10;99.90
27747;DHT22;15138;51.012;4.692;2023-10-08T01:55:53;16.10;99.90
27747;DHT22;15138;51.012;4.692;2023-10-08T01:58:22;16.00;99.90
27747;DHT22;15138;51.012;4.692;2023-10-08T02:00:51;16.00;99.90
27747;DHT22;15138;51.012;4.692;2023-10-08T02:03:21;16.00;99.90
27747;DHT22;15138;51.012;4.692;2023-10-08T02:05:50;16.00;99.90
27747;DHT22;15138;51.012;4.692;2023-10-08T02:08:20;16.00;99.90
27747;DHT22;15138;51.012;4.692;2023-10-08T02:10:50;16.00;99.90
27747;DHT22;15138;51.012;4.692;2023-10-08T02:13:19;16.00;99.90
27747;DHT22;15138;51.012;4.692;2023-10-08T02:15:49;16.00;99.90
27747;DHT22;15138;51.012;4.692;2023-10-08T02:18:18;16.00;99.90
27747;DHT22;15138;51.012;4.692;2023-10-08T02:20:47;15.90;99.90
27747;DHT22;15138;51.012;4.692;2023-10-08T02:23:15;15.90;99.90
27747;DHT22;15138;51.012;4.692;2023-10-08T02:25:45;15.90;99.90
27747;DHT22;15138;51.012;4.692;2023-10-08T02:28:16;15.90;99.90
27747;DHT22;15138;51.012;4.692;2023-10-08T02:30:47;15.90;99.90
27747;DHT22;15138;51.012;4.692;2023-10-08T02:33:15;15.80;99.90
27747;DHT22;15138;51.012;4.692;2023-10-08T02:35:45;15.90;99.90
27747;DHT22;15138;51.012;4.692;2023-10-08T02:38:14;15.90;99.90
27747;DHT22;15138;51.012;4.692;2023-10-08T02:40:44;15.90;99.90
27747;DHT22;15138;51.012;4.692;2023-10-08T02:43:13;15.90;99.90
27747;DHT22;15138;51.012;4.692;2023-10-08T02:45:44;15.90;99.90
27747;DHT22;15138;51.012;4.692;2023-10-08T02:48:15;15.90;99.90
27747;DHT22;15138;51.012;4.692;2023-10-08T02:50:45;15.90;99.90
27747;DHT22;15138;51.012;4.692;2023-10-08T02:53:14;15.90;99.90
27747;DHT22;15138;51.012;4.692;2023-10-08T02:55:45;15.90;99.90
27747;DHT22;15138;51.012;4.692;2023-10-08T02:58:14;15.90;99.90
27747;DHT22;15138;51.012;4.692;2023-10-08T03:00:44;15.90;99.90
27747;DHT22;15138;51.012;4.692;2023-10-08T03:03:13;15.90;99.90
27747;DHT22;15138;51.012;4.692;2023-10-08T03:05:45;15.90;99.90
27747;DHT22;15138;51.012;4.692;2023-10-08T03:08:14;15.90;99.90
27747;DHT22;15138;51.012;4.692;2023-10-08T03:10:47;15.90;99.90
27747;DHT22;15138;51.012;4.692;2023-10-08T03:13:17;15.90;99.90
27747;DHT22;15138;51.012;4.692;2023-10-08T03:15:48;15.90;99.90
27747;DHT22;15138;51.012;4.692;2023-10-08T03:18:36;15.90;99.90
27747;DHT22;15138;51.012;4.692;2023-10-08T03:21:09;15.90;99.90
27747;DHT22;15138;51.012;4.692;2023-10-08T03:23:51;15.90;99.90
27747;DHT22;15138;51.012;4.692;2023-10-08T03:26:24;15.90;99.90
27747;DHT22;15138;51.012;4.692;2023-10-08T03:29:04;15.90;99.90
27747;DHT22;15138;51.012;4.692;2023-10-08T03:31:37;15.90;99.90
27747;DHT22;15138;51.012;4.692;2023-10-08T03:34:18;15.80;99.90
27747;DHT22;15138;51.012;4.692;2023-10-08T03:36:47;15.80;99.90
27747;DHT22;15138;51.012;4.692;2023-10-08T03:39:17;15.80;99.90
27747;DHT22;15138;51.012;4.692;2023-10-08T03:41:46;15.80;99.90
27747;DHT22;15138;51.012;4.692;2023-10-08T03:44:26;15.80;99.90
27747;DHT22;15138;51.012;4.692;2023-10-08T03:46:58;15.90;99.90
27747;DHT22;15138;51.012;4.692;2023-10-08T03:49:27;15.80;99.90
27747;DHT22;15138;51.012;4.692;2023-10-08T03:51:58;15.80;99.90
27747;DHT22;15138;51.012;4.692;2023-10-08T03:54:27;15.80;99.90
27747;DHT22;15138;51.012;4.692;2023-10-08T03:57:01;15.70;99.90
27747;DHT22;15138;51.012;4.692;2023-10-08T03:59:30;15.70;99.90
27747;DHT22;15138;51.012;4.692;2023-10-08T04:02:03;15.70;99.90
27747;DHT22;15138;51.012;4.692;2023-10-08T04:04:41;15.70;99.90
27747;DHT22;15138;51.012;4.692;2023-10-08T04:07:20;15.70;99.90
27747;DHT22;15138;51.012;4.692;2023-10-08T04:09:55;15.70;99.90
27747;DHT22;15138;51.012;4.692;2023-10-08T04:12:43;15.70;99.90
27747;DHT22;15138;51.012;4.692;2023-10-08T04:15:12;15.60;99.90
27747;DHT22;15138;51.012;4.692;2023-10-08T04:17:45;15.60;99.90
27747;DHT22;15138;51.012;4.692;2023-10-08T04:20:18;15.50;99.90
27747;DHT22;15138;51.012;4.692;2023-10-08T04:23:01;15.60;99.90
27747;DHT22;15138;51.012;4.692;2023-10-08T04:25:31;15.60;99.90
27747;DHT22;15138;51.012;4.692;2023-10-08T04:28:00;15.50;99.90
27747;DHT22;15138;51.012;4.692;2023-10-08T04:30:33;15.50;99.90
27747;DHT22;15138;51.012;4.692;2023-10-08T04:33:04;15.50;99.90
27747;DHT22;15138;51.012;4.692;2023-10-08T04:35:34;15.40;99.90
27747;DHT22;15138;51.012;4.692;2023-10-08T04:38:07;15.40;99.90
27747;DHT22;15138;51.012;4.692;2023-10-08T04:40:37;15.40;99.90
27747;DHT22;15138;51.012;4.692;2023-10-08T04:43:15;15.40;99.90
27747;DHT22;15138;51.012;4.692;2023-10-08T04:45:48;15.40;99.90
27747;DHT22;15138;51.012;4.692;2023-10-08T04:48:18;15.40;99.90
27747;DHT22;15138;51.012;4.692;2023-10-08T04:50:47;15.30;99.90
27747;DHT22;15138;51.012;4.692;2023-10-08T04:53:26;15.30;99.90
27747;DHT22;15138;51.012;4.692;2023-10-08T04:56:04;15.20;99.90
27747;DHT22;15138;51.012;4.692;2023-10-08T04:58:33;15.20;99.90
27747;DHT22;15138;51.012;4.692;2023-10-08T05:01:04;15.20;99.90
27747;DHT22;15138;51.012;4.692;2023-10-08T05:03:56;15.10;99.90
27747;DHT22;15138;51.012;4.692;2023-10-08T05:06:52;15.10;99.90
27747;DHT22;15138;51.012;4.692;2023-10-08T05:09:34;15.10;99.90
27747;DHT22;15138;51.012;4.692;2023-10-08T05:12:19;15.00;99.90
27747;DHT22;15138;51.012;4.692;2023-10-08T05:15:01;15.00;99.90
27747;DHT22;15138;51.012;4.692;2023-10-08T05:17:47;15.00;99.90
27747;DHT22;15138;51.012;4.692;2023-10-08T05:20:26;15.00;99.90
27747;DHT22;15138;51.012;4.692;2023-10-08T05:23:12;15.00;99.90
27747;DHT22;15138;51.012;4.692;2023-10-08T05:26:08;15.00;99.90
27747;DHT22;15138;51.012;4.692;2023-10-08T05:28:37;15.00;99.90
27747;DHT22;15138;51.012;4.692;2023-10-08T05:31:14;15.00;99.90
27747;DHT22;15138;51.012;4.692;2023-10-08T05:34:03;15.00;99.90
27747;DHT22;15138;51.012;4.692;2023-10-08T05:36:46;15.00;99.90
27747;DHT22;15138;51.012;4.692;2023-10-08T05:39:34;14.90;99.90
27747;DHT22;15138;51.012;4.692;2023-10-08T05:42:09;14.90;99.90
27747;DHT22;15138;51.012;4.692;2023-10-08T05:44:47;14.90;99.90
27747;DHT22;15138;51.012;4.692;2023-10-08T05:47:36;14.90;99.90
27747;DHT22;15138;51.012;4.692;2023-10-08T05:50:08;14.90;99.90
27747;DHT22;15138;51.012;4.692;2023-10-08T05:52:55;14.90;99.90
27747;DHT22;15138;51.012;4.692;2023-10-08T05:55:42;14.90;99.90
27747;DHT22;15138;51.012;4.692;2023-10-08T05:58:14;14.80;99.90
27747;DHT22;15138;51.012;4.692;2023-10-08T06:00:51;14.80;99.90
27747;DHT22;15138;51.012;4.692;2023-10-08T06:03:53;14.80;99.90
27747;DHT22;15138;51.012;4.692;2023-10-08T06:06:38;14.80;99.90
27747;DHT22;15138;51.012;4.692;2023-10-08T06:09:15;14.90;99.90
27747;DHT22;15138;51.012;4.692;2023-10-08T06:11:49;14.90;99.90
27747;DHT22;15138;51.012;4.692;2023-10-08T06:14:37;14.90;99.90
27747;DHT22;15138;51.012;4.692;2023-10-08T06:17:34;14.90;99.90
27747;DHT22;15138;51.012;4.692;2023-10-08T06:20:25;14.90;99.90
27747;DHT22;15138;51.012;4.692;2023-10-08T06:22:54;14.90;99.90
27747;DHT22;15138;51.012;4.692;2023-10-08T06:25:29;15.00;99.90
27747;DHT22;15138;51.012;4.692;2023-10-08T06:27:57;15.00;99.90
27747;DHT22;15138;51.012;4.692;2023-10-08T06:30:25;15.00;99.90
27747;DHT22;15138;51.012;4.692;2023-10-08T06:32:57;15.10;99.90
27747;DHT22;15138;51.012;4.692;2023-10-08T06:35:25;15.10;99.90
27747;DHT22;15138;51.012;4.692;2023-10-08T06:37:55;15.10;1.00
27747;DHT22;15138;51.012;4.692;2023-10-08T06:40:26;15.10;1.00
27747;DHT22;15138;51.012;4.692;2023-10-08T06:43:11;15.20;1.00
27747;DHT22;15138;51.012;4.692;2023-10-08T06:45:42;15.30;1.00
27747;DHT22;15138;51.012;4.692;2023-10-08T06:48:11;15.40;1.00
27747;DHT22;15138;51.012;4.692;2023-10-08T06:50:45;15.40;1.00
27747;DHT22;15138;51.012;4.692;2023-10-08T06:53:13;15.50;1.00
27747;DHT22;15138;51.012;4.692;2023-10-08T06:55:42;15.60;1.00
27747;DHT22;15138;51.012;4.692;2023-10-08T06:58:11;14.60;99.90
27747;DHT22;15138;51.012;4.692;2023-10-08T07:00:41;15.90;99.90
27747;DHT22;15138;51.012;4.692;2023-10-08T07:03:16;15.90;99.90
27747;DHT22;15138;51.012;4.692;2023-10-08T07:05:47;16.00;99.90
27747;DHT22;15138;51.012;4.692;2023-10-08T07:08:27;16.10;99.90
27747;DHT22;15138;51.012;4.692;2023-10-08T07:11:00;16.20;99.90
27747;DHT22;15138;51.012;4.692;2023-10-08T07:13:33;16.30;99.90
27747;DHT22;15138;51.012;4.692;2023-10-08T07:16:03;16.30;99.90
27747;DHT22;15138;51.012;4.692;2023-10-08T07:18:35;16.50;99.90
27747;DHT22;15138;51.012;4.692;2023-10-08T07:21:03;16.40;1.00
27747;DHT22;15138;51.012;4.692;2023-10-08T07:23:39;16.50;1.00
27747;DHT22;15138;51.012;4.692;2023-10-08T07:26:24;16.60;1.00
27747;DHT22;15138;51.012;4.692;2023-10-08T07:28:54;16.80;53.70
27747;DHT22;15138;51.012;4.692;2023-10-08T07:31:23;17.00;5.40
27747;DHT22;15138;51.012;4.692;2023-10-08T07:33:56;17.30;99.90
27747;DHT22;15138;51.012;4.692;2023-10-08T07:36:25;17.70;1.00
27747;DHT22;15138;51.012;4.692;2023-10-08T07:38:56;17.70;93.00
27747;DHT22;15138;51.012;4.692;2023-10-08T07:41:24;18.00;1.00
27747;DHT22;15138;51.012;4.692;2023-10-08T07:46:25;18.50;1.00
27747;DHT22;15138;51.012;4.692;2023-10-08T07:48:53;18.60;1.00
27747;DHT22;15138;51.012;4.692;2023-10-08T07:51:23;18.60;94.40
27747;DHT22;15138;51.012;4.692;2023-10-08T07:53:52;18.90;97.80
27747;DHT22;15138;51.012;4.692;2023-10-08T07:58:52;19.60;99.90
27747;DHT22;15138;51.012;4.692;2023-10-08T08:01:24;19.90;1.00
27747;DHT22;15138;51.012;4.692;2023-10-08T08:03:52;20.10;1.00
27747;DHT22;15138;51.012;4.692;2023-10-08T08:06:21;20.10;99.90
27747;DHT22;15138;51.012;4.692;2023-10-08T08:08:49;20.20;99.90
27747;DHT22;15138;51.012;4.692;2023-10-08T08:11:18;20.50;76.60
27747;DHT22;15138;51.012;4.692;2023-10-08T08:13:51;20.70;1.00
27747;DHT22;15138;51.012;4.692;2023-10-08T08:16:19;20.90;99.90
27747;DHT22;15138;51.012;4.692;2023-10-08T08:18:51;20.50;1.00
27747;DHT22;15138;51.012;4.692;2023-10-08T08:21:22;20.80;99.90
27747;DHT22;15138;51.012;4.692;2023-10-08T08:23:50;21.40;1.00
27747;DHT22;15138;51.012;4.692;2023-10-08T08:26:20;21.50;1.00
27747;DHT22;15138;51.012;4.692;2023-10-08T08:28:56;22.00;99.90
27747;DHT22;15138;51.012;4.692;2023-10-08T08:31:27;22.10;99.90
27747;DHT22;15138;51.012;4.692;2023-10-08T08:33:59;21.90;99.90
27747;DHT22;15138;51.012;4.692;2023-10-08T08:36:30;22.00;99.90
27747;DHT22;15138;51.012;4.692;2023-10-08T08:38:59;22.40;99.90
27747;DHT22;15138;51.012;4.692;2023-10-08T08:41:28;22.70;99.90
27747;DHT22;15138;51.012;4.692;2023-10-08T08:43:56;23.10;60.00
27747;DHT22;15138;51.012;4.692;2023-10-08T08:49:02;22.90;99.90
27747;DHT22;15138;51.012;4.692;2023-10-08T08:51:31;23.00;99.90
27747;DHT22;15138;51.012;4.692;2023-10-08T08:56:33;23.90;99.90
27747;DHT22;15138;51.012;4.692;2023-10-08T08:59:04;24.10;99.90
27747;DHT22;15138;51.012;4.692;2023-10-08T09:01:34;24.40;99.90
27747;DHT22;15138;51.012;4.692;2023-10-08T09:04:05;24.50;99.90
27747;DHT22;15138;51.012;4.692;2023-10-08T09:06:34;24.50;99.90
27747;DHT22;15138;51.012;4.692;2023-10-08T09:09:04;24.80;99.90
27747;DHT22;15138;51.012;4.692;2023-10-08T09:11:49;25.00;99.90
27747;DHT22;15138;51.012;4.692;2023-10-08T09:14:20;25.40;99.90
27747;DHT22;15138;51.012;4.692;2023-10-08T09:16:49;25.70;99.90
27747;DHT22;15138;51.012;4.692;2023-10-08T09:19:19;25.50;99.90
27747;DHT22;15138;51.012;4.692;2023-10-08T09:22:04;25.80;99.90
27747;DHT22;15138;51.012;4.692;2023-10-08T09:24:33;26.00;99.90
27747;DHT22;15138;51.012;4.692;2023-10-08T09:27:04;26.40;99.90
27747;DHT22;15138;51.012;4.692;2023-10-08T09:29:32;26.20;99.90
27747;DHT22;15138;51.012;4.692;2023-10-08T09:32:09;26.60;99.90
27747;DHT22;15138;51.012;4.692;2023-10-08T09:34:39;26.90;99.90
27747;DHT22;15138;51.012;4.692;2023-10-08T09:37:07;26.60;99.90
27747;DHT22;15138;51.012;4.692;2023-10-08T09:39:37;26.60;99.90
27747;DHT22;15138;51.012;4.692;2023-10-08T09:42:08;26.90;99.90
27747;DHT22;15138;51.012;4.692;2023-10-08T09:44:38;27.60;99.90
27747;DHT22;15138;51.012;4.692;2023-10-08T09:47:08;28.00;99.90
27747;DHT22;15138;51.012;4.692;2023-10-08T09:49:44;28.30;99.90
27747;DHT22;15138;51.012;4.692;2023-10-08T09:52:16;28.20;99.90
27747;DHT22;15138;51.012;4.692;2023-10-08T09:54:52;28.80;99.90
27747;DHT22;15138;51.012;4.692;2023-10-08T09:57:22;29.00;99.90
27747;DHT22;15138;51.012;4.692;2023-10-08T09:59:54;29.20;99.90
27747;DHT22;15138;51.012;4.692;2023-10-08T10:02:24;29.90;99.90
27747;DHT22;15138;51.012;4.692;2023-10-08T10:04:56;30.50;99.90
27747;DHT22;15138;51.012;4.692;2023-10-08T10:07:25;31.00;99.90
27747;DHT22;15138;51.012;4.692;2023-10-08T10:09:55;31.10;99.90
27747;DHT22;15138;51.012;4.692;2023-10-08T10:12:26;31.40;99.90
27747;DHT22;15138;51.012;4.692;2023-10-08T10:14:56;31.40;99.90
27747;DHT22;15138;51.012;4.692;2023-10-08T10:17:26;31.60;99.90
27747;DHT22;15138;51.012;4.692;2023-10-08T10:20:12;31.10;99.90
27747;DHT22;15138;51.012;4.692;2023-10-08T10:22:43;31.10;99.90
27747;DHT22;15138;51.012;4.692;2023-10-08T10:25:16;31.20;99.90
27747;DHT22;15138;51.012;4.692;2023-10-08T10:28:22;31.10;99.90
27747;DHT22;15138;51.012;4.692;2023-10-08T10:30:51;31.30;99.90
27747;DHT22;15138;51.012;4.692;2023-10-08T10:33:19;31.80;99.90
27747;DHT22;15138;51.012;4.692;2023-10-08T10:35:53;32.00;99.90
27747;DHT22;15138;51.012;4.692;2023-10-08T10:38:21;32.30;99.90
27747;DHT22;15138;51.012;4.692;2023-10-08T10:40:53;32.40;99.90
27747;DHT22;15138;51.012;4.692;2023-10-08T10:43:26;32.90;99.90
27747;DHT22;15138;51.012;4.692;2023-10-08T10:46:00;32.90;99.90
27747;DHT22;15138;51.012;4.692;2023-10-08T10:48:50;32.80;99.90
27747;DHT22;15138;51.012;4.692;2023-10-08T10:51:39;33.20;99.90
27747;DHT22;15138;51.012;4.692;2023-10-08T10:54:08;33.70;99.90
27747;DHT22;15138;51.012;4.692;2023-10-08T10:56:37;34.00;99.90
27747;DHT22;15138;51.012;4.692;2023-10-08T10:59:12;34.40;99.90
27747;DHT22;15138;51.012;4.692;2023-10-08T11:01:54;34.60;99.90
27747;DHT22;15138;51.012;4.692;2023-10-08T11:04:32;34.00;99.90
27747;DHT22;15138;51.012;4.692;2023-10-08T11:07:14;33.80;99.90
27747;DHT22;15138;51.012;4.692;2023-10-08T11:09:43;34.20;99.90
27747;DHT22;15138;51.012;4.692;2023-10-08T11:12:13;34.30;99.90
27747;DHT22;15138;51.012;4.692;2023-10-08T11:14:50;33.90;99.90
27747;DHT22;15138;51.012;4.692;2023-10-08T11:17:23;34.20;99.90
27747;DHT22;15138;51.012;4.692;2023-10-08T11:19:53;34.50;99.90
27747;DHT22;15138;51.012;4.692;2023-10-08T11:22:28;34.50;99.90
27747;DHT22;15138;51.012;4.692;2023-10-08T11:25:20;34.30;99.90
27747;DHT22;15138;51.012;4.692;2023-10-08T11:27:51;34.30;99.90
27747;DHT22;15138;51.012;4.692;2023-10-08T11:30:26;34.30;99.90
27747;DHT22;15138;51.012;4.692;2023-10-08T11:32:57;34.10;99.90
27747;DHT22;15138;51.012;4.692;2023-10-08T11:35:26;34.40;99.90
27747;DHT22;15138;51.012;4.692;2023-10-08T11:37:59;33.70;1.00
27747;DHT22;15138;51.012;4.692;2023-10-08T11:40:30;33.90;99.90
27747;DHT22;15138;51.012;4.692;2023-10-08T11:43:15;33.80;99.90
27747;DHT22;15138;51.012;4.692;2023-10-08T11:45:44;33.80;99.90
27747;DHT22;15138;51.012;4.692;2023-10-08T11:48:15;34.30;99.90
27747;DHT22;15138;51.012;4.692;2023-10-08T11:50:49;34.30;99.90
27747;DHT22;15138;51.012;4.692;2023-10-08T11:53:19;35.00;99.90
27747;DHT22;15138;51.012;4.692;2023-10-08T11:55:47;35.20;99.90
27747;DHT22;15138;51.012;4.692;2023-10-08T11:58:15;35.20;99.90
27747;DHT22;15138;51.012;4.692;2023-10-08T12:00:47;35.40;99.90
27747;DHT22;15138;51.012;4.692;2023-10-08T12:03:19;35.40;99.90
27747;DHT22;15138;51.012;4.692;2023-10-08T12:05:52;35.30;99.90
27747;DHT22;15138;51.012;4.692;2023-10-08T12:08:28;35.20;99.90
27747;DHT22;15138;51.012;4.692;2023-10-08T12:10:56;35.20;99.90
27747;DHT22;15138;51.012;4.692;2023-10-08T12:13:27;35.20;99.90
27747;DHT22;15138;51.012;4.692;2023-10-08T12:15:55;34.50;96.90
27747;DHT22;15138;51.012;4.692;2023-10-08T12:18:33;34.60;99.90
27747;DHT22;15138;51.012;4.692;2023-10-08T12:21:07;34.90;99.90
27747;DHT22;15138;51.012;4.692;2023-10-08T12:23:39;35.60;99.90
27747;DHT22;15138;51.012;4.692;2023-10-08T12:26:08;35.20;94.20
27747;DHT22;15138;51.012;4.692;2023-10-08T12:28:36;35.20;99.10
27747;DHT22;15138;51.012;4.692;2023-10-08T12:31:04;35.60;97.30
27747;DHT22;15138;51.012;4.692;2023-10-08T12:33:32;35.80;96.80
27747;DHT22;15138;51.012;4.692;2023-10-08T12:36:01;36.20;97.30
27747;DHT22;15138;51.012;4.692;2023-10-08T12:38:41;36.20;95.80
27747;DHT22;15138;51.012;4.692;2023-10-08T12:41:10;36.00;96.10
27747;DHT22;15138;51.012;4.692;2023-10-08T12:43:44;35.90;95.00
27747;DHT22;15138;51.012;4.692;2023-10-08T12:46:13;35.70;92.60
27747;DHT22;15138;51.012;4.692;2023-10-08T12:48:46;35.40;92.00
27747;DHT22;15138;51.012;4.692;2023-10-08T12:51:20;35.40;90.70
27747;DHT22;15138;51.012;4.692;2023-10-08T12:53:53;35.40;84.30
27747;DHT22;15138;51.012;4.692;2023-10-08T12:56:30;35.40;90.50
27747;DHT22;15138;51.012;4.692;2023-10-08T12:59:06;35.50;80.90
27747;DHT22;15138;51.012;4.692;2023-10-08T13:01:35;35.50;86.20
27747;DHT22;15138;51.012;4.692;2023-10-08T13:04:08;35.30;82.70
27747;DHT22;15138;51.012;4.692;2023-10-08T13:06:43;35.20;82.80
27747;DHT22;15138;51.012;4.692;2023-10-08T13:09:14;35.30;83.50
27747;DHT22;15138;51.012;4.692;2023-10-08T13:11:42;35.50;83.10
27747;DHT22;15138;51.012;4.692;2023-10-08T13:14:10;35.60;86.30
27747;DHT22;15138;51.012;4.692;2023-10-08T13:16:40;35.60;80.00
27747;DHT22;15138;51.012;4.692;2023-10-08T13:19:08;35.80;87.30
27747;DHT22;15138;51.012;4.692;2023-10-08T13:21:36;35.50;79.40
27747;DHT22;15138;51.012;4.692;2023-10-08T13:24:05;35.50;76.00
27747;DHT22;15138;51.012;4.692;2023-10-08T13:26:38;35.80;77.50
27747;DHT22;15138;51.012;4.692;2023-10-08T13:29:06;35.50;65.70
27747;DHT22;15138;51.012;4.692;2023-10-08T13:31:36;35.20;67.80
27747;DHT22;15138;51.012;4.692;2023-10-08T13:34:05;35.30;66.20
27747;DHT22;15138;51.012;4.692;2023-10-08T13:36:36;35.50;92.00
27747;DHT22;15138;51.012;4.692;2023-10-08T13:39:06;35.20;62.90
27747;DHT22;15138;51.012;4.692;2023-10-08T13:41:38;35.40;60.30
27747;DHT22;15138;51.012;4.692;2023-10-08T13:44:08;35.50;65.70
27747;DHT22;15138;51.012;4.692;2023-10-08T13:46:39;35.70;65.60
27747;DHT22;15138;51.012;4.692;2023-10-08T13:49:15;35.30;56.70
27747;DHT22;15138;51.012;4.692;2023-10-08T13:51:46;35.50;55.50
27747;DHT22;15138;51.012;4.692;2023-10-08T13:54:23;35.20;51.60
27747;DHT22;15138;51.012;4.692;2023-10-08T13:56:58;34.70;47.90
27747;DHT22;15138;51.012;4.692;2023-10-08T13:59:29;34.60;48.90
27747;DHT22;15138;51.012;4.692;2023-10-08T14:01:59;34.80;51.90
27747;DHT22;15138;51.012;4.692;2023-10-08T14:04:29;34.60;47.20
27747;DHT22;15138;51.012;4.692;2023-10-08T14:07:02;34.80;50.80
27747;DHT22;15138;51.012;4.692;2023-10-08T14:09:31;34.50;49.50
27747;DHT22;15138;51.012;4.692;2023-10-08T14:12:06;34.30;45.80
27747;DHT22;15138;51.012;4.692;2023-10-08T14:14:35;34.30;44.80
27747;DHT22;15138;51.012;4.692;2023-10-08T14:17:03;34.40;47.80
27747;DHT22;15138;51.012;4.692;2023-10-08T14:19:35;34.50;47.00
27747;DHT22;15138;51.012;4.692;2023-10-08T14:22:07;34.50;47.80
27747;DHT22;15138;51.012;4.692;2023-10-08T14:24:41;34.00;44.30
27747;DHT22;15138;51.012;4.692;2023-10-08T14:27:14;33.80;48.00
27747;DHT22;15138;51.012;4.692;2023-10-08T14:29:43;33.40;41.90
27747;DHT22;15138;51.012;4.692;2023-10-08T14:32:14;33.40;45.50
27747;DHT22;15138;51.012;4.692;2023-10-08T14:34:43;33.50;48.70
27747;DHT22;15138;51.012;4.692;2023-10-08T14:37:29;33.40;49.70
27747;DHT22;15138;51.012;4.692;2023-10-08T14:40:15;32.90;47.80
27747;DHT22;15138;51.012;4.692;2023-10-08T14:43:02;32.70;48.60
27747;DHT22;15138;51.012;4.692;2023-10-08T14:45:34;32.50;44.60
27747;DHT22;15138;51.012;4.692;2023-10-08T14:48:04;32.60;48.70
27747;DHT22;15138;51.012;4.692;2023-10-08T14:50:38;32.20;43.20
27747;DHT22;15138;51.012;4.692;2023-10-08T14:53:07;31.90;42.60
27747;DHT22;15138;51.012;4.692;2023-10-08T14:55:36;31.80;48.30
27747;DHT22;15138;51.012;4.692;2023-10-08T14:58:08;31.80;45.10
27747;DHT22;15138;51.012;4.692;2023-10-08T15:00:37;31.60;46.10
27747;DHT22;15138;51.012;4.692;2023-10-08T15:03:08;31.40;46.10
27747;DHT22;15138;51.012;4.692;2023-10-08T15:05:39;31.20;50.10
27747;DHT22;15138;51.012;4.692;2023-10-08T15:08:07;31.10;48.30
27747;DHT22;15138;51.012;4.692;2023-10-08T15:10:38;30.80;48.20
27747;DHT22;15138;51.012;4.692;2023-10-08T15:13:08;30.60;48.70
27747;DHT22;15138;51.012;4.692;2023-10-08T15:15:36;30.40;50.00
27747;DHT22;15138;51.012;4.692;2023-10-08T15:18:07;30.40;50.30
27747;DHT22;15138;51.012;4.692;2023-10-08T15:20:39;30.30;50.40
27747;DHT22;15138;51.012;4.692;2023-10-08T15:23:08;30.20;52.60
27747;DHT22;15138;51.012;4.692;2023-10-08T15:25:39;30.30;54.10
27747;DHT22;15138;51.012;4.692;2023-10-08T15:28:10;30.20;53.10
27747;DHT22;15138;51.012;4.692;2023-10-08T15:30:38;30.10;54.10
27747;DHT22;15138;51.012;4.692;2023-10-08T15:33:08;30.00;55.30
27747;DHT22;15138;51.012;4.692;2023-10-08T15:35:36;29.80;56.10
27747;DHT22;15138;51.012;4.692;2023-10-08T15:38:04;29.70;56.10
27747;DHT22;15138;51.012;4.692;2023-10-08T15:40:32;29.60;99.90
27747;DHT22;15138;51.012;4.692;2023-10-08T15:43:01;29.60;58.90
27747;DHT22;15138;51.012;4.692;2023-10-08T15:45:32;29.60;56.90
27747;DHT22;15138;51.012;4.692;2023-10-08T15:48:04;29.50;57.40
27747;DHT22;15138;51.012;4.692;2023-10-08T15:50:33;29.40;59.20
27747;DHT22;15138;51.012;4.692;2023-10-08T15:53:01;29.30;60.80
27747;DHT22;15138;51.012;4.692;2023-10-08T15:55:29;29.30;62.80
27747;DHT22;15138;51.012;4.692;2023-10-08T15:57:57;29.30;63.10
27747;DHT22;15138;51.012;4.692;2023-10-08T16:00:25;29.10;64.50
27747;DHT22;15138;51.012;4.692;2023-10-08T16:02:55;29.00;63.40
27747;DHT22;15138;51.012;4.692;2023-10-08T16:05:23;29.00;64.30
27747;DHT22;15138;51.012;4.692;2023-10-08T16:07:51;28.80;63.10
27747;DHT22;15138;51.012;4.692;2023-10-08T16:10:25;28.60;63.60
27747;DHT22;15138;51.012;4.692;2023-10-08T16:12:54;28.50;62.10
27747;DHT22;15138;51.012;4.692;2023-10-08T16:15:23;28.40;62.00
27747;DHT22;15138;51.012;4.692;2023-10-08T16:17:51;28.20;64.40